Time;durP1;ratioP1;P1;durP2;ratioP2;P2;SDS_P1;SDS_P2;PMS_P1;PMS_P2;Temp;Humidity;BMP_temperature;BMP_pressure;BME280_temperature;BME280_humidity;BME280_pressure;Samples;Min_cycle;Max_cycle;Signal;HPM_P1;HPM_P2
2022/12/27 00:01:40;;;;;;;195.65;91.25;;;;;;;9.81;88.43;102181.03;5051587;28;20059;-78
2022/12/27 00:04:09;;;;;;;178.35;88.75;;;;;;;9.77;87.97;102164.41;5037634;28;20083;-79
2022/12/27 00:06:37;;;;;;;179.45;87.25;;;;;;;9.59;87.97;102131.94;5037054;28;20138;-79
2022/12/27 00:09:04;;;;;;;178.60;88.88;;;;;;;9.86;88.19;102170.97;5035672;28;20080;-77
2022/12/27 00:11:32;;;;;;;165.85;86.25;;;;;;;9.87;87.86;102156.75;5036615;28;20045;-78
2022/12/27 00:14:01;;;;;;;178.38;88.00;;;;;;;9.89;87.48;102152.22;5037157;28;20082;-78
2022/12/27 00:16:29;;;;;;;183.23;87.60;;;;;;;10.02;87.45;102163.78;5037673;28;20076;-77
2022/12/27 00:18:56;;;;;;;199.30;90.47;;;;;;;9.95;87.63;102130.63;5036782;28;20060;-78
2022/12/27 00:21:22;;;;;;;190.75;91.43;;;;;;;10.06;86.75;102149.38;5038649;28;20414;-78
2022/12/27 00:23:54;;;;;;;194.05;88.47;;;;;;;9.77;87.58;102090.16;5035640;28;20277;-78
2022/12/27 00:26:23;;;;;;;198.60;93.15;;;;;;;10.11;88.02;102150.88;5033571;28;20045;-78
2022/12/27 00:28:52;;;;;;;172.90;82.88;;;;;;;10.11;88.08;102150.88;5035422;28;20236;-78
2022/12/27 00:31:20;;;;;;;185.75;89.88;;;;;;;10.12;88.24;102152.59;5035919;28;20341;-78
2022/12/27 00:33:51;;;;;;;206.05;96.65;;;;;;;9.84;87.36;102107.41;5035487;28;20055;-79
2022/12/27 00:36:21;;;;;;;205.75;93.35;;;;;;;9.96;87.50;102116.41;5037302;28;20051;-79
2022/12/27 00:38:48;;;;;;;210.20;93.60;;;;;;;9.94;86.90;102115.63;5034357;28;20055;-79
2022/12/27 00:41:17;;;;;;;217.07;94.65;;;;;;;10.10;87.81;102135.91;5036969;28;20056;-78
2022/12/27 00:43:44;;;;;;;196.35;92.35;;;;;;;10.18;87.33;102145.09;5030937;28;20080;-77
2022/12/27 00:46:11;;;;;;;199.82;91.93;;;;;;;10.15;87.15;102132.03;5052865;28;20074;-78
2022/12/27 00:48:40;;;;;;;201.38;95.82;;;;;;;10.30;86.81;102150.63;5051839;28;20542;-78
2022/12/27 00:51:12;;;;;;;177.13;85.47;;;;;;;10.34;86.62;102131.75;5037423;28;20053;-78
2022/12/27 00:53:39;;;;;;;191.98;91.25;;;;;;;10.21;86.56;102121.00;5033667;28;20152;-79
2022/12/27 00:56:13;;;;;;;199.00;90.40;;;;;;;10.30;86.33;102134.69;5055451;28;20662;-77
2022/12/27 00:58:39;;;;;;;174.00;82.05;;;;;;;10.45;86.34;102131.91;5058678;28;20052;-80
2022/12/27 01:01:27;;;;;;;203.55;90.82;;;;;;;10.44;86.16;102121.41;5037076;28;20246;-80
2022/12/27 01:03:55;;;;;;;196.85;92.53;;;;;;;10.43;85.73;102112.56;5036076;28;20477;-79
2022/12/27 01:06:27;;;;;;;190.68;90.32;;;;;;;10.02;85.07;102039.09;5033874;28;20509;-79
2022/12/27 01:08:56;;;;;;;190.00;86.70;;;;;;;10.40;85.73;102115.41;5036348;28;20133;-79
2022/12/27 01:11:25;;;;;;;194.23;88.15;;;;;;;10.30;85.87;102085.13;5038646;28;20424;-79
2022/12/27 01:13:56;;;;;;;186.27;87.47;;;;;;;9.60;85.87;101985.13;5043806;28;20545;-80
2022/12/27 01:16:24;;;;;;;185.60;89.45;;;;;;;10.32;85.77;102101.81;5045888;28;20044;-79
2022/12/27 01:18:52;;;;;;;192.95;87.18;;;;;;;10.28;85.88;102100.28;5042629;28;20509;-79
2022/12/27 01:21:22;;;;;;;196.50;94.18;;;;;;;10.15;86.33;102102.84;5037237;28;20048;-78
2022/12/27 01:23:49;;;;;;;189.13;86.97;;;;;;;10.16;86.28;102103.69;5036243;28;20060;-78
2022/12/27 01:26:19;;;;;;;186.52;85.20;;;;;;;10.12;86.09;102107.47;5035347;28;20048;-78
2022/12/27 01:28:47;;;;;;;192.35;89.13;;;;;;;10.07;86.38;102102.44;5037250;28;20069;-78
2022/12/27 01:31:17;;;;;;;190.82;86.25;;;;;;;10.04;86.75;102105.31;5035951;28;20573;-78
2022/12/27 01:33:45;;;;;;;189.35;86.40;;;;;;;9.98;86.70;102111.84;5032255;28;20105;-78
2022/12/27 01:36:26;;;;;;;182.45;88.03;;;;;;;9.92;86.87;102098.97;5052867;28;20060;-77
2022/12/27 01:38:59;;;;;;;180.60;86.72;;;;;;;9.97;87.00;102088.06;5054853;28;20467;-76
2022/12/27 01:44:36;;;;;;;182.13;85.68;;;;;;;9.92;86.72;102103.41;5053919;28;20467;-77
2022/12/27 01:47:32;;;;;;;178.93;84.32;;;;;;;9.86;86.58;102107.31;5052841;28;20391;-76
2022/12/27 01:50:15;;;;;;;173.48;82.13;;;;;;;9.80;86.13;102103.22;5052218;28;20149;-77
2022/12/27 01:53:07;;;;;;;182.90;84.57;;;;;;;9.65;86.54;102095.38;5051494;28;20234;-78
2022/12/27 01:55:44;;;;;;;178.02;82.18;;;;;;;9.15;86.80;102017.97;5032193;28;20044;-77
2022/12/27 01:58:14;;;;;;;193.32;86.43;;;;;;;9.32;87.51;102051.41;5015251;28;20083;-77
2022/12/27 02:00:47;;;;;;;176.20;81.05;;;;;;;9.58;86.94;102101.03;5032053;28;20146;-79
2022/12/27 02:03:23;;;;;;;184.95;87.30;;;;;;;9.61;87.13;102100.88;5034567;28;20071;-78
2022/12/27 02:05:50;;;;;;;180.27;82.65;;;;;;;9.52;87.10;102074.06;5051631;28;20310;-79
2022/12/27 02:08:25;;;;;;;184.80;83.15;;;;;;;9.20;86.92;102037.97;5054197;28;20078;-78
2022/12/27 02:10:55;;;;;;;180.07;83.30;;;;;;;9.47;87.04;102090.25;5038556;28;20044;-78
2022/12/27 02:13:22;;;;;;;175.45;82.15;;;;;;;9.40;86.69;102091.56;5036171;28;20060;-78
2022/12/27 02:15:49;;;;;;;180.60;83.25;;;;;;;8.61;86.66;101976.16;5038702;28;20538;-78
2022/12/27 02:18:16;;;;;;;181.38;85.13;;;;;;;9.26;87.03;102094.19;5035686;28;20522;-77
2022/12/27 02:20:57;;;;;;;171.85;81.07;;;;;;;9.24;87.34;102093.41;5036444;28;20055;-76
2022/12/27 02:26:26;;;;;;;168.18;80.57;;;;;;;9.25;87.33;102098.63;5041217;28;20064;-79
2022/12/27 02:29:19;;;;;;;172.52;80.70;;;;;;;9.19;86.86;102088.38;5039178;28;20359;-78
2022/12/27 02:31:56;;;;;;;172.63;83.00;;;;;;;9.17;87.36;102088.50;5040493;28;20540;-78
2022/12/27 02:34:52;;;;;;;168.45;79.15;;;;;;;8.69;87.46;102012.75;5039408;28;20052;-77
2022/12/27 02:37:25;;;;;;;171.43;79.47;;;;;;;8.97;87.32;102067.63;5041394;28;20079;-78
2022/12/27 02:39:54;;;;;;;175.13;80.97;;;;;;;8.66;86.91;102029.66;5040157;28;20295;-79
2022/12/27 02:54:07;;;;;;;190.38;85.95;;;;;;;9.01;88.44;102077.09;5037256;28;20494;-78
2022/12/27 02:57:07;;;;;;;;;;;;;;;9.11;88.27;102088.84;5039695;28;20048;-78
2022/12/27 03:03:27;;;;;;;172.93;81.68;;;;;;;8.23;88.02;101958.03;5020092;28;20048;-78
2022/12/27 03:06:41;;;;;;;173.68;82.00;;;;;;;9.13;87.99;102105.50;5038283;28;20079;-78
2022/12/27 03:09:11;;;;;;;177.43;82.57;;;;;;;9.14;88.25;102098.41;5036492;28;20072;-78
2022/12/27 03:17:39;;;;;;;194.80;87.40;;;;;;;9.22;88.91;102108.56;5040390;28;20784;-78
2022/12/27 03:25:49;;;;;;;179.70;84.53;;;;;;;9.51;87.36;102097.06;5035557;28;19931;-78
2022/12/27 03:34:30;;;;;;;161.43;77.18;;;;;;;9.56;87.50;102071.13;5045788;28;20046;-78
2022/12/27 03:39:59;;;;;;;174.07;80.25;;;;;;;9.66;86.82;102065.25;5041033;28;20063;-78
2022/12/27 03:46:35;;;;;;;178.25;81.95;;;;;;;9.64;87.72;102083.91;5038926;28;20150;-79
2022/12/27 03:49:22;;;;;;;175.00;81.60;;;;;;;9.24;87.87;102032.47;4940366;28;20295;-79
2022/12/27 03:52:10;;;;;;;193.50;83.20;;;;;;;9.47;88.37;102084.94;5032424;28;20068;-78
2022/12/27 03:54:39;;;;;;;183.55;82.18;;;;;;;9.37;88.88;102086.47;5038405;28;20053;-78
2022/12/27 03:57:18;;;;;;;187.63;82.43;;;;;;;9.38;89.08;102077.53;5054384;28;20522;-79
2022/12/27 03:59:45;;;;;;;173.43;78.22;;;;;;;9.46;88.61;102090.34;5037595;28;20119;-79
2022/12/27 04:02:14;;;;;;;189.02;86.65;;;;;;;9.59;89.11;102097.47;5038312;28;20061;-80
2022/12/27 04:04:44;;;;;;;200.05;86.75;;;;;;;9.56;88.20;102105.59;5037828;28;20531;-78
2022/12/27 04:07:12;;;;;;;197.50;85.97;;;;;;;9.51;88.41;102099.69;5037858;28;20220;-77
2022/12/27 04:34:42;;;;;;;213.35;84.03;;;;;;;9.43;88.71;102062.22;5038323;28;20564;-77
2022/12/27 04:37:17;;;;;;;190.13;79.90;;;;;;;9.35;88.36;102051.25;5037340;28;20057;-79
2022/12/27 04:56:36;;;;;;;197.45;84.55;;;;;;;9.26;89.73;102087.09;5042644;28;20059;-81
2022/12/27 05:02:02;;;;;;;183.50;80.78;;;;;;;8.90;88.93;102013.28;5037083;28;20281;-80
2022/12/27 05:04:35;;;;;;;185.02;83.55;;;;;;;9.14;89.71;102080.72;5033877;28;20070;-79
2022/12/27 05:15:22;;;;;;;199.57;83.18;;;;;;;9.32;89.19;102088.50;5037495;28;20055;-78
2022/12/27 05:17:49;;;;;;;173.48;77.63;;;;;;;9.16;89.62;102073.53;5028624;28;20057;-78
2022/12/27 05:20:15;;;;;;;180.35;80.57;;;;;;;9.42;90.22;102113.53;5037483;28;20043;-79
2022/12/27 05:25:33;;;;;;;199.05;82.07;;;;;;;9.24;89.90;102093.41;5036294;28;20422;-78
2022/12/27 05:28:01;;;;;;;177.02;79.00;;;;;;;9.22;90.19;102097.94;5036122;28;20052;-78
2022/12/27 05:30:27;;;;;;;167.57;75.25;;;;;;;9.29;90.00;102112.53;5053565;28;20086;-79
2022/12/27 05:32:55;;;;;;;192.82;80.93;;;;;;;9.11;89.74;102095.94;5032910;28;20321;-78
2022/12/27 05:35:27;;;;;;;194.38;82.80;;;;;;;9.34;90.12;102123.72;5034486;28;20049;-79
2022/12/27 05:37:54;;;;;;;;;;;;;;;9.31;89.87;102129.22;5037752;28;20045;-78
2022/12/27 05:40:23;;;;;;;176.52;78.85;;;;;;;9.23;90.41;102120.88;5049533;28;19928;-79
2022/12/27 05:42:50;;;;;;;188.25;83.57;;;;;;;9.27;90.08;102132.97;5053335;28;20343;-79
2022/12/27 05:45:18;;;;;;;195.75;79.97;;;;;;;9.17;90.66;102112.34;5046324;28;20044;-78
2022/12/27 05:47:45;;;;;;;187.43;79.50;;;;;;;9.24;90.23;102118.13;5032593;28;20554;-78
2022/12/27 05:50:11;;;;;;;184.60;81.03;;;;;;;9.35;90.35;102142.19;5036393;28;20052;-79
2022/12/27 05:52:40;;;;;;;196.90;83.57;;;;;;;9.35;90.38;102149.31;5034044;28;20309;-79
2022/12/27 05:55:07;;;;;;;195.90;82.07;;;;;;;9.33;90.36;102145.88;5041884;28;20048;-78
2022/12/27 05:57:34;;;;;;;214.70;79.43;;;;;;;9.31;90.46;102151.25;5042407;28;20162;-78
2022/12/27 06:00:04;;;;;;;189.05;80.15;;;;;;;9.25;90.16;102153.41;5056595;28;20048;-78
2022/12/27 06:02:31;;;;;;;182.10;80.80;;;;;;;9.22;90.79;102162.41;5035013;28;20149;-79
2022/12/27 06:04:58;;;;;;;204.18;79.72;;;;;;;9.14;90.83;102154.91;5034133;28;20897;-78
2022/12/27 06:07:24;;;;;;;184.57;75.82;;;;;;;8.78;90.45;102083.72;5035654;28;20139;-79
2022/12/27 06:09:51;;;;;;;174.48;78.53;;;;;;;9.13;90.55;102147.91;5035088;28;20049;-78
2022/12/27 06:12:20;;;;;;;209.30;83.18;;;;;;;9.09;90.25;102141.06;5036363;28;20065;-79
2022/12/27 06:14:47;;;;;;;181.32;79.50;;;;;;;9.16;90.93;102160.97;5034290;28;20224;-79
2022/12/27 06:17:14;;;;;;;216.10;73.40;;;;;;;9.06;90.79;102146.56;5045545;28;20055;-78
2022/12/27 06:19:40;;;;;;;308.42;75.43;;;;;;;9.19;90.10;102160.78;5057890;28;20372;-79
2022/12/27 06:22:07;;;;;;;175.65;73.82;;;;;;;9.13;90.37;102161.16;5052497;28;20047;-79
2022/12/27 06:24:34;;;;;;;195.15;73.40;;;;;;;9.24;89.84;102180.88;5043989;28;20052;-79
2022/12/27 06:27:00;;;;;;;220.02;71.85;;;;;;;8.66;90.12;102095.88;5036651;28;20067;-79
2022/12/27 06:29:27;;;;;;;197.48;69.88;;;;;;;8.95;90.00;102149.81;5052785;28;20163;-78
2022/12/27 06:31:56;;;;;;;167.73;65.03;;;;;;;8.85;89.74;102148.63;5035298;28;20540;-78
2022/12/27 06:34:23;;;;;;;175.23;67.30;;;;;;;9.07;90.38;102195.94;5035671;28;20612;-79
2022/12/27 06:36:50;;;;;;;146.18;67.72;;;;;;;8.93;90.32;102177.31;5034490;28;20049;-79
2022/12/27 06:39:17;;;;;;;143.55;64.53;;;;;;;9.01;90.21;102188.34;5038895;28;20803;-78
2022/12/27 06:41:49;;;;;;;142.38;64.68;;;;;;;8.99;90.19;102187.59;5047656;28;20674;-78
2022/12/27 06:44:18;;;;;;;141.07;65.75;;;;;;;8.92;90.66;102192.38;5053921;28;20528;-78
2022/12/27 06:46:45;;;;;;;137.55;65.93;;;;;;;8.85;90.17;102180.41;5052315;28;20055;-78
2022/12/27 06:49:12;;;;;;;124.22;62.30;;;;;;;8.76;90.02;102171.22;5053695;28;20509;-79
2022/12/27 06:51:41;;;;;;;126.40;60.63;;;;;;;9.01;90.19;102206.91;5044138;28;20129;-78
2022/12/27 06:54:08;;;;;;;118.78;59.55;;;;;;;8.90;89.56;102199.53;5043112;28;20668;-77
2022/12/27 06:56:35;;;;;;;135.60;64.07;;;;;;;9.02;89.14;102213.88;5032711;28;20064;-77
2022/12/27 06:59:02;;;;;;;117.90;57.13;;;;;;;9.08;88.53;102210.91;5051668;28;20478;-77
2022/12/27 07:01:29;;;;;;;127.22;62.22;;;;;;;8.93;88.40;102187.91;5035905;28;20056;-78
2022/12/27 07:03:58;;;;;;;133.02;61.78;;;;;;;9.07;89.03;102232.19;5034610;28;20151;-78
2022/12/27 07:06:27;;;;;;;137.68;65.70;;;;;;;9.05;88.57;102232.25;5054447;28;20061;-78
2022/12/27 07:08:58;;;;;;;142.63;65.47;;;;;;;9.06;88.76;102225.19;5059717;28;20040;-78
2022/12/27 07:11:27;;;;;;;145.52;66.57;;;;;;;8.67;88.70;102171.72;5040037;28;20490;-79
2022/12/27 07:13:54;;;;;;;127.35;61.63;;;;;;;8.94;88.85;102216.13;5039261;28;20466;-78
2022/12/27 07:16:25;;;;;;;125.90;62.42;;;;;;;8.88;88.39;102219.94;5039563;28;20048;-78
2022/12/27 07:18:56;;;;;;;124.47;61.28;;;;;;;9.04;88.81;102242.94;5041661;28;20045;-78
2022/12/27 07:21:29;;;;;;;122.57;58.58;;;;;;;9.05;88.66;102226.94;5054420;28;20075;-78
2022/12/27 07:23:56;;;;;;;120.18;58.42;;;;;;;9.19;88.34;102242.91;5037117;28;20056;-78
2022/12/27 07:26:28;;;;;;;126.72;60.55;;;;;;;9.24;88.11;102233.88;5029548;28;20455;-78
2022/12/27 07:28:56;;;;;;;;;;;;;;;9.25;87.01;102233.78;5016936;28;20056;-78
2022/12/27 07:31:25;;;;;;;111.90;56.67;;;;;;;9.26;87.29;102246.09;5018083;28;19932;-78
2022/12/27 07:34:02;;;;;;;117.03;60.28;;;;;;;9.26;87.12;102245.25;5016718;28;20060;-76
2022/12/27 07:36:33;;;;;;;113.47;56.80;;;;;;;9.09;86.98;102230.31;5013170;28;20048;-78
2022/12/27 07:39:00;;;;;;;118.25;59.17;;;;;;;9.15;86.96;102238.75;5015608;28;20507;-77
2022/12/27 07:41:26;;;;;;;115.80;53.80;;;;;;;9.06;86.56;102236.63;5015812;28;20580;-78
2022/12/27 07:43:56;;;;;;;97.88;52.00;;;;;;;8.30;86.25;102064.34;5014987;28;20641;-77
2022/12/27 07:46:27;;;;;;;94.82;52.30;;;;;;;9.39;85.72;102256.81;5010142;28;20056;-78
2022/12/27 07:48:57;;;;;;;94.10;51.67;;;;;;;9.35;84.90;102268.56;5015727;28;20150;-77
2022/12/27 07:51:26;;;;;;;92.85;52.13;;;;;;;9.15;84.54;102238.75;5013171;28;20060;-77
2022/12/27 07:53:57;;;;;;;93.75;51.85;;;;;;;9.32;86.07;102263.41;5028290;28;20072;-77
2022/12/27 07:56:26;;;;;;;93.80;51.40;;;;;;;9.35;86.16;102273.88;5038186;28;20052;-78
2022/12/27 07:58:56;;;;;;;105.03;53.80;;;;;;;9.09;85.74;102196.69;5035768;28;20042;-78
2022/12/27 08:02:02;;;;;;;108.30;54.05;;;;;;;9.69;85.39;102271.94;5034936;28;20083;-78
2022/12/27 08:04:24;;;;;;;102.10;53.75;;;;;;;9.99;85.38;102280.69;5033675;28;20060;-78
2022/12/27 08:07:06;;;;;;;102.40;53.95;;;;;;;10.14;83.91;102272.75;5033906;28;20390;-78
2022/12/27 08:09:36;;;;;;;105.63;55.70;;;;;;;10.00;83.02;102266.50;5036646;28;20468;-77
2022/12/27 08:12:03;;;;;;;91.88;48.30;;;;;;;10.01;83.34;102265.53;5040884;28;20391;-78
2022/12/27 08:14:32;;;;;;;105.88;52.70;;;;;;;9.96;82.05;102288.00;5041716;28;20106;-78
2022/12/27 08:17:12;;;;;;;108.40;50.75;;;;;;;10.10;83.92;102277.41;5035329;28;20060;-78
2022/12/27 08:19:42;;;;;;;103.53;50.05;;;;;;;10.54;84.14;102292.47;5037417;28;20110;-78
2022/12/27 08:22:12;;;;;;;149.18;51.97;;;;;;;10.60;83.90;102259.34;5033839;28;20044;-77
2022/12/27 08:24:40;;;;;;;133.90;50.13;;;;;;;11.13;84.22;102279.84;5029344;28;20132;-78
2022/12/27 08:27:07;;;;;;;116.53;47.15;;;;;;;10.90;79.65;102272.50;5033195;28;20463;-79
2022/12/27 08:29:37;;;;;;;118.57;47.10;;;;;;;10.58;80.36;102247.97;5028442;28;20171;-78
2022/12/27 08:32:14;;;;;;;87.45;46.95;;;;;;;11.15;79.89;102279.75;5030060;28;20461;-78
2022/12/27 08:34:41;;;;;;;91.28;45.50;;;;;;;10.82;77.71;102280.94;5032318;28;20786;-78
2022/12/27 08:37:08;;;;;;;95.15;45.15;;;;;;;10.67;79.45;102284.56;5047433;28;20053;-79
2022/12/27 08:39:36;;;;;;;94.70;44.03;;;;;;;11.15;81.57;102293.03;5051750;28;20040;-78
2022/12/27 08:42:10;;;;;;;100.63;45.08;;;;;;;11.32;80.64;102295.47;5019912;28;20165;-77
2022/12/27 08:44:36;;;;;;;80.78;43.00;;;;;;;10.99;77.73;102263.06;5056516;28;20147;-78
2022/12/27 08:47:04;;;;;;;82.80;46.58;;;;;;;10.72;77.41;102271.00;5050225;28;20139;-78
2022/12/27 08:49:31;;;;;;;80.82;44.55;;;;;;;10.98;79.17;102303.91;5036141;28;20055;-78
2022/12/27 08:51:58;;;;;;;85.18;45.65;;;;;;;10.57;79.51;102259.53;5035401;28;20052;-78
2022/12/27 08:54:25;;;;;;;84.55;45.83;;;;;;;10.48;79.76;102293.69;5034606;28;20335;-78
2022/12/27 08:56:52;;;;;;;85.03;41.55;;;;;;;10.60;80.36;102301.84;5032670;28;20048;-79
2022/12/27 08:59:20;;;;;;;77.45;40.42;;;;;;;11.22;80.44;102267.78;5037240;28;20048;-78
2022/12/27 09:01:52;;;;;;;82.05;46.92;;;;;;;11.15;78.32;102309.00;5035838;28;20049;-77
2022/12/27 09:04:21;;;;;;;73.20;40.03;;;;;;;11.86;78.50;102307.00;5031312;28;20060;-79
2022/12/27 09:06:50;;;;;;;78.55;41.47;;;;;;;11.72;77.53;102319.44;5035559;28;20082;-78
2022/12/27 09:09:17;;;;;;;80.95;44.50;;;;;;;11.66;76.52;102327.81;5046195;28;20559;-78
2022/12/27 09:11:52;;;;;;;73.47;41.47;;;;;;;11.74;77.84;102312.19;5060537;28;20079;-80
2022/12/27 09:14:27;;;;;;;81.93;46.60;;;;;;;11.59;76.67;102323.00;5056828;28;20047;-77
2022/12/27 09:16:57;;;;;;;89.60;46.58;;;;;;;11.05;77.67;102287.47;5034098;28;20432;-79
2022/12/27 09:19:24;;;;;;;76.22;43.40;;;;;;;11.11;78.88;102312.78;5034136;28;20057;-79
2022/12/27 09:21:53;;;;;;;93.35;50.30;;;;;;;11.63;77.46;102325.38;5029642;28;20048;-80
2022/12/27 09:24:20;;;;;;;93.78;47.53;;;;;;;11.31;76.98;102335.44;5036157;28;20498;-80
2022/12/27 09:26:49;;;;;;;75.00;40.67;;;;;;;12.23;75.95;102324.03;5047380;28;20521;-79
2022/12/27 09:29:17;;;;;;;74.38;40.45;;;;;;;12.67;73.83;102337.88;5048710;28;20429;-79
2022/12/27 09:31:43;;;;;;;81.47;42.13;;;;;;;12.50;74.42;102326.63;5032011;28;20055;-79
2022/12/27 09:34:12;;;;;;;67.10;39.22;;;;;;;12.96;72.69;102334.03;5051277;28;20405;-79
2022/12/27 09:36:39;;;;;;;87.82;47.35;;;;;;;12.63;72.47;102331.94;5044649;28;20160;-80
2022/12/27 09:39:06;;;;;;;77.00;42.05;;;;;;;12.85;72.29;102315.25;5016704;28;20049;-80
2022/12/27 09:41:42;;;;;;;89.60;47.63;;;;;;;12.43;73.18;102322.66;5019615;28;20127;-79
2022/12/27 09:44:33;;;;;;;91.85;49.53;;;;;;;11.62;74.64;102261.63;5035590;28;20604;-80
2022/12/27 09:47:37;;;;;;;91.78;49.90;;;;;;;11.31;76.48;102267.19;5036985;28;20045;-80
2022/12/27 09:50:16;;;;;;;73.05;41.17;;;;;;;11.86;76.50;102305.19;5035951;28;20068;-80
2022/12/27 09:52:59;;;;;;;91.07;49.92;;;;;;;11.76;76.16;102310.28;5044663;28;20058;-78
2022/12/27 09:55:40;;;;;;;95.97;49.30;;;;;;;11.19;77.45;102252.03;5055476;28;20055;-79
2022/12/27 09:58:45;;;;;;;70.63;39.25;;;;;;;11.80;77.24;102310.94;5060199;28;20128;-80
2022/12/27 10:01:30;;;;;;;96.50;50.20;;;;;;;11.63;76.63;102324.53;5038602;28;20057;-80
2022/12/27 10:04:04;;;;;;;98.13;51.58;;;;;;;11.40;77.72;102312.72;5053272;28;20451;-80
2022/12/27 10:06:46;;;;;;;100.55;53.53;;;;;;;11.25;78.05;102318.06;5056631;28;20051;-80
2022/12/27 10:09:44;;;;;;;105.70;52.65;;;;;;;11.10;79.20;102324.38;5047048;28;20056;-80
2022/12/27 10:12:25;;;;;;;73.93;42.30;;;;;;;11.63;78.47;102322.72;5035411;28;20315;-79
2022/12/27 10:15:06;;;;;;;83.95;42.38;;;;;;;11.94;76.74;102304.72;5035282;28;20486;-80
2022/12/27 10:17:52;;;;;;;75.63;41.45;;;;;;;12.04;75.91;102265.00;5034496;28;20369;-79
2022/12/27 10:20:30;;;;;;;109.78;53.80;;;;;;;12.04;75.77;102302.28;5014531;28;20209;-79
2022/12/27 10:23:01;;;;;;;110.50;53.40;;;;;;;11.18;77.38;102207.78;5016886;28;20421;-80
2022/12/27 10:25:33;;;;;;;84.38;45.40;;;;;;;11.49;78.11;102269.56;5016255;28;20324;-78
2022/12/27 10:28:13;;;;;;;110.30;55.30;;;;;;;11.58;78.34;102311.53;5016546;28;20194;-78
2022/12/27 10:30:41;;;;;;;82.35;42.10;;;;;;;11.69;77.88;102303.66;5022785;28;20072;-79
2022/12/27 10:33:34;;;;;;;80.30;43.33;;;;;;;12.61;74.55;102294.72;5037078;28;20131;-78
2022/12/27 10:36:29;;;;;;;85.22;43.65;;;;;;;12.52;74.17;102279.38;5043797;28;20151;-81
2022/12/27 10:38:56;;;;;;;80.53;45.08;;;;;;;12.51;73.67;102255.53;5034331;28;20053;-80
2022/12/27 10:41:33;;;;;;;86.22;46.58;;;;;;;12.32;72.65;102178.75;5036059;28;20049;-80
2022/12/27 10:44:01;;;;;;;101.03;50.25;;;;;;;13.30;70.68;102288.94;5037603;28;20118;-80
2022/12/27 10:46:32;;;;;;;95.22;48.65;;;;;;;13.43;70.74;102300.41;5039211;28;20041;-81
2022/12/27 10:49:05;;;;;;;108.60;54.58;;;;;;;12.73;73.12;102281.50;5039956;28;20155;-80
2022/12/27 10:51:50;;;;;;;120.35;55.58;;;;;;;11.79;75.45;102201.94;5039881;28;20550;-80
2022/12/27 10:54:28;;;;;;;132.70;58.20;;;;;;;12.01;76.47;102267.88;5019048;28;20143;-79
2022/12/27 10:57:15;;;;;;;103.63;49.00;;;;;;;12.57;75.06;102295.91;5040389;28;20048;-78
2022/12/27 10:59:45;;;;;;;116.78;56.88;;;;;;;12.15;76.12;102300.59;5037942;28;20721;-80
2022/12/27 11:02:18;;;;;;;114.15;58.38;;;;;;;11.85;77.53;102281.38;5035527;28;20056;-79
2022/12/27 11:05:18;;;;;;;94.95;48.05;;;;;;;12.58;75.03;102286.09;5053946;28;20426;-80
2022/12/27 11:07:45;;;;;;;95.60;46.75;;;;;;;13.22;72.51;102289.44;5015745;28;20457;-79
2022/12/27 11:10:22;;;;;;;100.57;49.90;;;;;;;12.87;71.53;102217.41;5037199;28;20048;-80
2022/12/27 11:13:02;;;;;;;103.65;48.80;;;;;;;12.18;73.06;102161.06;5038851;28;20204;-78
2022/12/27 11:15:48;;;;;;;125.18;60.13;;;;;;;12.71;73.29;102248.78;5053569;28;20052;-79
2022/12/27 11:18:27;;;;;;;124.68;58.55;;;;;;;12.51;74.40;102277.69;5018597;28;20048;-78
2022/12/27 11:20:56;;;;;;;111.75;54.78;;;;;;;12.34;75.79;102288.69;5032919;28;20052;-79
2022/12/27 11:23:33;;;;;;;103.97;51.88;;;;;;;12.38;75.79;102275.03;5035418;28;20080;-79
2022/12/27 11:26:06;;;;;;;101.15;50.50;;;;;;;12.50;75.06;102262.69;5033375;28;20501;-79
2022/12/27 11:28:44;;;;;;;117.03;56.95;;;;;;;12.53;72.88;102195.00;5017393;28;20774;-79
2022/12/27 11:31:18;;;;;;;104.90;50.85;;;;;;;12.83;73.26;102256.72;5019406;28;20059;-78
2022/12/27 11:33:50;;;;;;;104.55;50.95;;;;;;;12.85;73.89;102269.09;5033330;28;20282;-79
2022/12/27 11:36:23;;;;;;;;;;;;;;;13.23;71.97;102261.84;5055959;28;20082;-78
2022/12/27 11:38:50;;;;;;;112.28;50.95;;;;;;;13.15;72.06;102258.00;5035449;28;19928;-79
2022/12/27 11:41:46;;;;;;;97.78;48.72;;;;;;;13.11;72.67;102257.41;5038213;28;21001;-79
2022/12/27 11:44:26;;;;;;;105.18;48.60;;;;;;;13.17;71.94;102251.59;5035809;28;20064;-78
2022/12/27 11:47:11;;;;;;;118.20;56.00;;;;;;;12.85;73.57;102251.31;5053403;28;20492;-80
2022/12/27 11:50:03;;;;;;;118.75;57.65;;;;;;;12.49;75.46;102250.31;5032194;28;20450;-80
2022/12/27 11:53:02;;;;;;;99.60;47.13;;;;;;;12.94;73.58;102244.47;5038364;28;20361;-79
2022/12/27 11:55:50;;;;;;;109.90;53.03;;;;;;;13.02;73.26;102242.91;5032091;28;20052;-79
2022/12/27 11:58:51;;;;;;;106.78;52.55;;;;;;;13.25;72.37;102243.91;5038036;28;20056;-79
2022/12/27 12:01:43;;;;;;;100.63;49.65;;;;;;;13.35;71.58;102238.78;5020415;28;20450;-80
2022/12/27 12:04:37;;;;;;;122.68;58.60;;;;;;;13.19;72.34;102236.34;5036143;28;20210;-78
2022/12/27 12:07:38;;;;;;;118.57;57.20;;;;;;;12.54;75.14;102236.66;5029572;28;20044;-78
2022/12/27 12:10:43;;;;;;;113.75;56.20;;;;;;;12.76;74.42;102241.28;5036761;28;20059;-77
2022/12/27 12:13:36;;;;;;;112.57;57.03;;;;;;;12.48;75.16;102237.97;5037061;28;20443;-77
2022/12/27 12:16:32;;;;;;;111.60;54.63;;;;;;;12.31;76.69;102235.63;5036189;28;20525;-77
2022/12/27 12:19:02;;;;;;;93.45;47.10;;;;;;;12.13;75.46;102164.06;5036666;28;20108;-78
2022/12/27 12:21:33;;;;;;;100.53;48.85;;;;;;;12.55;75.60;102225.06;5035920;28;20327;-77
2022/12/27 12:24:28;;;;;;;103.35;48.50;;;;;;;12.82;72.27;102142.25;5034433;28;20148;-78
2022/12/27 12:27:36;;;;;;;118.30;56.95;;;;;;;12.91;73.84;102218.00;5036072;28;20048;-80
2022/12/27 12:30:15;;;;;;;125.32;57.95;;;;;;;12.57;75.44;102221.31;4999505;28;20412;-79
2022/12/27 12:33:24;;;;;;;117.38;58.38;;;;;;;12.37;76.74;102216.53;5037435;28;20130;-78
2022/12/27 12:35:57;;;;;;;102.28;50.10;;;;;;;13.08;73.57;102219.44;4960392;28;20065;-77
2022/12/27 12:38:44;;;;;;;98.85;50.40;;;;;;;13.39;71.56;102218.88;4960359;28;20128;-78
2022/12/27 12:41:48;;;;;;;99.07;49.22;;;;;;;13.20;72.40;102229.19;5019532;28;20659;-78
2022/12/27 12:44:42;;;;;;;98.93;50.90;;;;;;;13.15;71.99;102223.34;5031596;28;20310;-78
2022/12/27 12:47:18;;;;;;;100.07;49.55;;;;;;;12.02;71.00;102006.94;5031961;28;20052;-77
2022/12/27 12:49:54;;;;;;;99.47;48.70;;;;;;;13.61;70.50;102217.25;5031626;28;20404;-78
2022/12/27 12:52:43;;;;;;;98.68;48.35;;;;;;;13.55;70.31;102188.41;5041785;28;20048;-78
2022/12/27 12:55:39;;;;;;;124.00;57.17;;;;;;;13.32;71.98;102222.13;5053092;28;20392;-78
2022/12/27 12:58:41;;;;;;;106.03;51.67;;;;;;;13.18;72.47;102204.44;5064155;28;20052;-78
2022/12/27 13:01:23;;;;;;;96.03;49.03;;;;;;;13.24;70.67;102153.34;5052189;28;20470;-77
2022/12/27 13:04:27;;;;;;;130.80;59.95;;;;;;;13.10;72.94;102206.84;5035610;28;20056;-76
2022/12/27 13:07:09;;;;;;;109.25;52.20;;;;;;;12.94;71.99;102149.34;5036265;28;20402;-78
2022/12/27 13:10:11;;;;;;;99.63;50.08;;;;;;;13.61;71.32;102204.75;5036256;28;20049;-78
2022/12/27 13:13:03;;;;;;;99.13;50.25;;;;;;;13.68;70.32;102210.50;5038146;28;20041;-79
2022/12/27 13:15:53;;;;;;;112.90;50.00;;;;;;;13.58;70.30;102196.16;5037116;28;20051;-80
2022/12/27 13:19:01;;;;;;;111.95;52.55;;;;;;;13.46;70.99;102214.78;5022855;28;20316;-79
2022/12/27 13:21:43;;;;;;;105.95;49.35;;;;;;;13.60;70.81;102216.41;4989969;28;20071;-78
2022/12/27 13:24:48;;;;;;;125.65;55.03;;;;;;;12.91;74.08;102218.00;5019966;28;20057;-78
2022/12/27 13:27:41;;;;;;;127.05;58.28;;;;;;;12.59;75.60;102197.22;5019678;28;20168;-78